createdAt,value
2023-09-08T00:01:59.414Z,5.88
2023-09-08T00:04:31.694Z,5.97
2023-09-08T00:07:04.102Z,5.30
2023-09-08T00:09:36.285Z,6.20
2023-09-08T00:12:08.671Z,5.65
2023-09-08T00:14:40.909Z,5.45
2023-09-08T00:17:13.164Z,6.00
2023-09-08T00:19:45.678Z,5.47
2023-09-08T00:22:17.777Z,6.65
2023-09-08T00:24:49.996Z,5.10
2023-09-08T00:27:22.206Z,5.40
2023-09-08T00:29:54.295Z,6.05
2023-09-08T00:32:26.593Z,6.00
2023-09-08T00:34:58.916Z,5.68
2023-09-08T00:37:31.060Z,5.85
2023-09-08T00:40:03.337Z,5.70
2023-09-08T00:42:35.439Z,5.18
2023-09-08T00:45:08.006Z,5.65
2023-09-08T00:47:40.254Z,5.57
2023-09-08T00:50:13.426Z,5.45
2023-09-08T00:52:45.620Z,5.20
2023-09-08T00:55:18.933Z,6.20
2023-09-08T00:57:51.422Z,5.03
2023-09-08T01:00:23.608Z,6.18
2023-09-08T01:02:55.879Z,5.32
2023-09-08T01:05:28.307Z,5.45
2023-09-08T01:08:01.898Z,5.47
2023-09-08T01:10:34.163Z,5.40
2023-09-08T01:13:06.250Z,5.18
2023-09-08T01:15:38.471Z,5.63
2023-09-08T01:18:11.727Z,6.30
2023-09-08T01:21:38.281Z,6.28
2023-09-08T01:25:08.358Z,5.72
2023-09-08T01:27:47.237Z,5.68
2023-09-08T01:30:20.072Z,5.80
2023-09-08T01:32:52.704Z,6.47
2023-09-08T01:35:26.207Z,6.00
2023-09-08T01:37:58.539Z,6.57
2023-09-08T01:40:30.639Z,6.15
2023-09-08T01:43:02.825Z,5.75
2023-09-08T01:45:34.980Z,6.45
2023-09-08T01:48:07.580Z,6.03
2023-09-08T01:50:39.666Z,6.88
2023-09-08T01:53:11.930Z,6.95
2023-09-08T01:55:44.022Z,6.88
2023-09-08T01:58:16.329Z,6.35
2023-09-08T02:00:55.080Z,6.13
2023-09-08T02:03:27.303Z,6.15
2023-09-08T02:05:59.511Z,6.65
2023-09-08T02:08:31.653Z,6.28
2023-09-08T02:11:03.714Z,6.55
2023-09-08T02:13:35.960Z,6.07
2023-09-08T02:16:08.416Z,6.20
2023-09-08T02:18:40.601Z,6.32
2023-09-08T02:21:13.379Z,6.72
2023-09-08T02:23:45.547Z,6.72
2023-09-08T02:26:17.618Z,7.05
2023-09-08T02:28:49.764Z,6.43
2023-09-08T02:31:21.902Z,6.40
2023-09-08T02:33:54.303Z,6.63
2023-09-08T02:36:26.793Z,5.97
2023-09-08T02:38:59.035Z,6.10
2023-09-08T02:41:31.147Z,6.97
2023-09-08T02:44:03.973Z,6.43
2023-09-08T02:46:36.229Z,6.65
2023-09-08T02:49:08.459Z,6.60
2023-09-08T02:51:40.686Z,5.78
2023-09-08T02:54:13.057Z,6.28
2023-09-08T02:56:45.183Z,6.07
2023-09-08T02:59:18.116Z,6.10
2023-09-08T03:01:50.379Z,6.13
2023-09-08T03:04:23.051Z,5.53
2023-09-08T03:06:55.166Z,5.97
2023-09-08T03:09:27.429Z,6.45
2023-09-08T03:12:00.130Z,7.25
2023-09-08T03:14:32.303Z,6.80
2023-09-08T03:17:04.786Z,6.03
2023-09-08T03:19:36.985Z,6.25
2023-09-08T03:22:09.101Z,6.47
2023-09-08T03:24:41.190Z,7.18
2023-09-08T03:27:13.366Z,7.03
2023-09-08T03:29:45.568Z,5.85
2023-09-08T03:32:17.805Z,7.20
2023-09-08T03:34:51.843Z,7.03
2023-09-08T03:37:23.964Z,7.00
2023-09-08T03:39:56.083Z,6.25
2023-09-08T03:42:28.326Z,6.65
2023-09-08T03:45:00.484Z,7.10
2023-09-08T03:47:32.761Z,6.75
2023-09-08T03:50:05.392Z,6.07
2023-09-08T03:52:37.498Z,7.20
2023-09-08T03:55:09.737Z,6.70
2023-09-08T03:57:41.829Z,7.10
2023-09-08T04:00:20.570Z,6.57
2023-09-08T04:02:52.990Z,6.85
2023-09-08T04:05:25.240Z,6.60
2023-09-08T04:07:57.425Z,6.47
2023-09-08T04:10:29.676Z,6.85
2023-09-08T04:13:01.896Z,7.28
2023-09-08T04:15:36.632Z,6.78
2023-09-08T04:18:09.383Z,7.78
2023-09-08T04:20:41.547Z,7.10
2023-09-08T04:23:13.629Z,6.80
2023-09-08T04:25:45.692Z,7.25
2023-09-08T04:28:17.987Z,7.45
2023-09-08T04:30:50.259Z,7.25
2023-09-08T04:33:22.558Z,7.43
2023-09-08T04:35:54.803Z,7.70
2023-09-08T04:38:26.991Z,8.10
2023-09-08T04:40:59.253Z,7.78
2023-09-08T04:43:31.300Z,8.18
2023-09-08T04:46:04.950Z,8.10
2023-09-08T04:48:39.284Z,8.32
2023-09-08T04:51:12.837Z,8.55
2023-09-08T04:53:44.978Z,8.07
2023-09-08T04:56:17.202Z,7.40
2023-09-08T04:58:49.336Z,8.13
2023-09-08T05:01:21.833Z,8.50
2023-09-08T05:03:54.259Z,9.50
2023-09-08T05:06:26.841Z,7.88
2023-09-08T05:09:01.227Z,7.95
2023-09-08T05:11:33.446Z,8.10
2023-09-08T05:14:06.187Z,8.73
2023-09-08T05:16:40.723Z,13.20
2023-09-08T05:19:14.421Z,11.48
2023-09-08T05:21:46.706Z,9.05
2023-09-08T05:24:18.842Z,7.78
2023-09-08T05:26:50.958Z,8.68
2023-09-08T05:29:23.039Z,9.00
2023-09-08T05:31:55.165Z,8.48
2023-09-08T05:34:27.428Z,8.13
2023-09-08T05:36:59.674Z,8.25
2023-09-08T05:39:31.938Z,8.50
2023-09-08T05:42:04.360Z,8.43
2023-09-08T05:44:36.643Z,8.23
2023-09-08T05:47:08.935Z,7.82
2023-09-08T05:49:41.107Z,8.25
2023-09-08T05:52:13.390Z,8.60
2023-09-08T05:54:45.599Z,8.40
2023-09-08T05:57:17.685Z,8.35
2023-09-08T05:59:49.840Z,10.57
2023-09-08T06:02:21.992Z,9.20
2023-09-08T06:04:54.082Z,8.68
2023-09-08T06:07:26.259Z,8.57
2023-09-08T06:09:58.375Z,7.97
2023-09-08T06:12:30.549Z,7.88
2023-09-08T06:15:04.656Z,9.13
2023-09-08T06:17:36.807Z,8.48
2023-09-08T06:20:10.052Z,8.80
2023-09-08T06:22:42.299Z,8.50
2023-09-08T06:25:14.527Z,8.60
2023-09-08T06:27:46.751Z,8.50
2023-09-08T06:30:19.901Z,8.15
2023-09-08T06:32:52.212Z,8.65
2023-09-08T06:35:24.373Z,8.98
2023-09-08T06:37:56.640Z,9.02
2023-09-08T06:40:31.754Z,9.70
2023-09-08T06:43:04.241Z,8.27
2023-09-08T06:45:41.148Z,8.93
2023-09-08T06:48:13.391Z,8.40
2023-09-08T06:50:45.644Z,10.50
2023-09-08T06:53:17.859Z,9.43
2023-09-08T06:55:50.376Z,8.93
2023-09-08T06:58:22.635Z,8.30
2023-09-08T07:00:55.953Z,8.68
2023-09-08T07:03:38.691Z,8.93
2023-09-08T07:06:11.177Z,8.32
2023-09-08T07:08:43.417Z,7.80
2023-09-08T07:11:17.646Z,8.05
2023-09-08T07:13:50.154Z,8.13
2023-09-08T07:16:22.319Z,9.43
2023-09-08T07:18:54.491Z,9.35
2023-09-08T07:21:26.634Z,8.82
2023-09-08T07:23:59.582Z,7.80
2023-09-08T07:26:31.703Z,8.20
2023-09-08T07:29:03.815Z,7.03
2023-09-08T07:31:36.571Z,7.85
2023-09-08T07:34:08.784Z,8.88
2023-09-08T07:36:41.305Z,7.75
2023-09-08T07:39:13.418Z,7.28
2023-09-08T07:41:45.548Z,7.68
2023-09-08T07:44:19.061Z,8.35
2023-09-08T07:46:52.693Z,7.45
2023-09-08T07:49:25.372Z,7.45
2023-09-08T07:51:57.526Z,7.30
2023-09-08T07:54:29.604Z,7.25
2023-09-08T07:57:01.725Z,7.25
2023-09-08T07:59:35.386Z,7.20
2023-09-08T08:02:09.740Z,5.97
2023-09-08T08:04:44.803Z,7.03
2023-09-08T08:07:16.997Z,6.45
2023-09-08T08:09:49.135Z,6.35
2023-09-08T08:12:21.327Z,6.50
2023-09-08T08:14:53.533Z,5.95
2023-09-08T08:17:27.704Z,9.50
2023-09-08T08:20:00.460Z,6.22
2023-09-08T08:22:32.583Z,6.47
2023-09-08T08:25:05.723Z,5.18
2023-09-08T08:27:37.941Z,5.28
2023-09-08T08:30:12.815Z,5.15
2023-09-08T08:32:45.101Z,5.45
2023-09-08T08:35:17.340Z,5.47
2023-09-08T08:37:49.748Z,5.15
2023-09-08T08:40:22.019Z,5.68
2023-09-08T08:43:00.660Z,4.88
2023-09-08T08:45:38.552Z,5.25
2023-09-08T08:48:13.286Z,5.10
2023-09-08T08:50:45.688Z,5.38
2023-09-08T08:53:22.094Z,4.63
2023-09-08T08:55:59.426Z,4.53
2023-09-08T08:58:31.732Z,5.78
2023-09-08T09:01:04.806Z,6.28
2023-09-08T09:03:39.434Z,5.28
2023-09-08T09:06:12.257Z,4.80
2023-09-08T09:08:45.728Z,4.70
2023-09-08T09:11:18.051Z,4.90
2023-09-08T09:13:50.320Z,4.82
2023-09-08T09:16:22.488Z,4.68
2023-09-08T09:19:00.776Z,4.93
2023-09-08T09:21:52.010Z,5.10
2023-09-08T09:24:35.032Z,4.60
2023-09-08T09:27:08.129Z,4.55
2023-09-08T09:29:51.485Z,5.18
2023-09-08T09:32:28.108Z,4.45
2023-09-08T09:35:02.752Z,6.82
2023-09-08T09:37:37.239Z,4.53
2023-09-08T09:40:12.062Z,4.22
2023-09-08T09:42:44.463Z,3.92
2023-09-08T09:45:17.331Z,4.50
2023-09-08T09:47:49.673Z,4.00
2023-09-08T09:50:34.468Z,3.88
2023-09-08T09:53:18.206Z,3.65
2023-09-08T09:55:50.971Z,4.35
2023-09-08T09:58:24.580Z,3.92
2023-09-08T10:00:56.915Z,3.97
2023-09-08T10:03:32.276Z,3.90
2023-09-08T10:06:04.903Z,3.60
2023-09-08T10:08:39.819Z,3.60
2023-09-08T10:11:17.482Z,3.88
2023-09-08T10:13:52.861Z,3.63
2023-09-08T10:16:32.176Z,3.88
2023-09-08T10:19:10.678Z,3.45
2023-09-08T10:21:46.387Z,3.67
2023-09-08T10:24:36.659Z,3.38
2023-09-08T10:27:13.428Z,2.95
2023-09-08T10:29:46.333Z,3.95
2023-09-08T10:32:20.891Z,3.22
2023-09-08T10:34:55.364Z,2.80
2023-09-08T10:37:30.965Z,3.22
2023-09-08T10:40:35.784Z,3.88
2023-09-08T10:43:12.286Z,5.32
2023-09-08T10:45:44.651Z,3.60
2023-09-08T10:48:17.192Z,3.03
2023-09-08T10:50:49.391Z,3.40
2023-09-08T10:53:22.485Z,3.63
2023-09-08T10:58:40.231Z,3.92
2023-09-08T11:01:20.391Z,3.20
2023-09-08T11:03:52.987Z,3.67
2023-09-08T11:06:25.297Z,3.60
2023-09-08T11:08:57.870Z,3.35
2023-09-08T11:11:35.273Z,3.30
2023-09-08T11:14:07.464Z,3.80
2023-09-08T11:16:39.642Z,3.38
2023-09-08T11:19:11.996Z,2.90
2023-09-08T11:21:45.514Z,3.10
2023-09-08T11:24:19.671Z,2.88
2023-09-08T11:26:52.814Z,2.85
2023-09-08T11:29:25.072Z,3.10
2023-09-08T11:31:57.289Z,3.10
2023-09-08T11:34:30.355Z,2.63
2023-09-08T11:37:10.708Z,3.05
2023-09-08T11:39:47.264Z,3.00
2023-09-08T11:42:19.998Z,3.53
2023-09-08T11:44:52.292Z,2.90
2023-09-08T11:47:24.430Z,2.78
2023-09-08T11:49:56.501Z,3.22
2023-09-08T11:52:29.311Z,2.95
2023-09-08T11:55:06.986Z,3.33
2023-09-08T11:57:41.563Z,2.83
2023-09-08T12:00:18.023Z,2.70
2023-09-08T12:02:51.068Z,2.90
2023-09-08T12:05:27.991Z,2.97
2023-09-08T12:08:00.452Z,3.28
2023-09-08T12:10:40.869Z,2.97
2023-09-08T12:13:17.247Z,3.05
2023-09-08T12:15:49.715Z,2.60
2023-09-08T12:18:40.687Z,3.33
2023-09-08T12:21:13.035Z,2.90
2023-09-08T12:23:50.578Z,3.55
2023-09-08T12:26:25.000Z,3.13
2023-09-08T12:28:57.308Z,2.65
2023-09-08T12:31:30.026Z,3.00
2023-09-08T12:34:02.978Z,2.83
2023-09-08T12:36:37.703Z,3.20
2023-09-08T12:39:09.881Z,2.95
2023-09-08T12:41:42.040Z,2.90
2023-09-08T12:44:14.220Z,2.90
2023-09-08T12:46:46.394Z,2.88
2023-09-08T12:49:18.699Z,2.75
2023-09-08T12:51:50.789Z,2.80
2023-09-08T12:54:23.153Z,2.88
2023-09-08T12:56:55.297Z,2.78
2023-09-08T12:59:27.561Z,2.47
2023-09-08T13:01:59.686Z,2.85
2023-09-08T13:04:32.156Z,2.92
2023-09-08T13:07:04.466Z,2.60
2023-09-08T13:09:36.677Z,3.42
2023-09-08T13:12:10.274Z,3.20
2023-09-08T13:14:42.807Z,3.20
2023-09-08T13:17:20.176Z,3.20
2023-09-08T13:19:52.370Z,3.22
2023-09-08T13:22:24.581Z,5.03
2023-09-08T13:24:56.705Z,3.65
2023-09-08T13:27:28.885Z,3.90
2023-09-08T13:30:15.661Z,3.30
2023-09-08T13:32:47.886Z,3.20
2023-09-08T13:35:20.248Z,3.45
2023-09-08T13:37:52.424Z,3.38
2023-09-08T13:40:24.698Z,3.60
2023-09-08T13:42:56.895Z,3.40
2023-09-08T13:45:29.132Z,3.58
2023-09-08T13:48:01.464Z,2.72
2023-09-08T13:50:34.320Z,3.08
2023-09-08T13:53:09.487Z,3.28
2023-09-08T13:55:43.807Z,2.90
2023-09-08T13:58:20.045Z,3.38
2023-09-08T14:00:53.724Z,3.13
2023-09-08T14:03:30.138Z,3.13
2023-09-08T14:06:07.413Z,3.40
2023-09-08T14:11:42.496Z,3.20
2023-09-08T14:14:16.232Z,3.08
2023-09-08T14:16:48.582Z,3.08
2023-09-08T14:19:20.750Z,3.13
2023-09-08T14:21:52.969Z,3.28
2023-09-08T14:24:25.216Z,3.95
2023-09-08T14:26:57.384Z,3.05
2023-09-08T14:29:29.495Z,3.15
2023-09-08T14:32:01.830Z,3.75
2023-09-08T14:34:34.092Z,3.65
2023-09-08T14:37:07.938Z,3.67
2023-09-08T14:39:41.804Z,3.17
2023-09-08T14:42:15.292Z,3.47
2023-09-08T14:44:47.605Z,3.67
2023-09-08T14:47:20.294Z,3.40
2023-09-08T14:49:52.399Z,4.20
2023-09-08T14:52:25.103Z,3.78
2023-09-08T14:54:57.196Z,3.22
2023-09-08T14:57:29.376Z,3.33
2023-09-08T15:00:01.548Z,4.00
2023-09-08T15:02:33.793Z,3.45
2023-09-08T15:05:06.539Z,3.33
2023-09-08T15:07:38.799Z,3.33
2023-09-08T15:10:11.131Z,3.42
2023-09-08T15:12:43.342Z,3.40
2023-09-08T15:15:15.799Z,3.70
2023-09-08T15:17:47.982Z,3.38
2023-09-08T15:20:23.084Z,3.22
2023-09-08T15:22:55.760Z,3.25
2023-09-08T15:25:27.959Z,3.08
2023-09-08T15:28:00.083Z,3.38
2023-09-08T15:30:32.384Z,4.22
2023-09-08T15:33:08.177Z,3.75
2023-09-08T15:35:40.759Z,3.72
2023-09-08T15:38:14.508Z,3.58
2023-09-08T15:41:08.725Z,3.60
2023-09-08T15:43:42.184Z,3.60
2023-09-08T15:46:14.678Z,4.90
2023-09-08T15:48:46.910Z,3.75
2023-09-08T15:51:19.089Z,3.40
2023-09-08T15:53:51.660Z,4.07
2023-09-08T15:56:23.785Z,4.00
2023-09-08T15:58:55.926Z,3.60
2023-09-08T16:01:28.208Z,4.07
2023-09-08T16:04:00.742Z,3.72
2023-09-08T16:06:33.636Z,5.53
2023-09-08T16:09:07.326Z,11.48
2023-09-08T16:11:39.420Z,6.75
2023-09-08T16:14:11.552Z,3.80
2023-09-08T16:16:45.167Z,3.75
2023-09-08T16:19:18.828Z,5.50
2023-09-08T16:21:51.037Z,4.60
2023-09-08T16:24:23.460Z,4.78
2023-09-08T16:26:58.180Z,5.03
2023-09-08T16:29:31.989Z,4.47
2023-09-08T16:32:04.528Z,4.38
2023-09-08T16:34:36.751Z,7.05
2023-09-08T16:37:09.969Z,6.63
2023-09-08T16:39:42.344Z,4.45
2023-09-08T16:42:14.803Z,4.97
2023-09-08T16:44:47.124Z,5.30
2023-09-08T16:47:21.246Z,4.28
2023-09-08T16:49:54.287Z,4.18
2023-09-08T16:52:26.687Z,4.38
2023-09-08T16:54:58.854Z,26.75
2023-09-08T16:57:31.027Z,26.48
2023-09-08T17:00:04.794Z,5.55
2023-09-08T17:02:38.152Z,23.15
2023-09-08T17:05:11.455Z,8.48
2023-09-08T17:07:44.631Z,7.07
2023-09-08T17:10:16.921Z,10.63
2023-09-08T17:12:49.083Z,5.93
2023-09-08T17:15:21.236Z,6.03
2023-09-08T17:17:53.629Z,8.95
2023-09-08T17:20:27.098Z,5.75
2023-09-08T17:22:59.368Z,5.65
2023-09-08T17:25:31.561Z,5.60
2023-09-08T17:28:03.904Z,5.57
2023-09-08T17:30:36.074Z,5.75
2023-09-08T17:33:08.234Z,5.85
2023-09-08T17:35:40.466Z,5.75
2023-09-08T17:38:12.662Z,10.32
2023-09-08T17:40:44.909Z,8.45
2023-09-08T17:43:17.059Z,6.85
2023-09-08T17:45:49.323Z,6.47
2023-09-08T17:48:21.500Z,9.02
2023-09-08T17:50:53.830Z,9.80
2023-09-08T17:53:25.912Z,8.70
2023-09-08T17:55:58.032Z,8.57
2023-09-08T17:58:30.193Z,8.98
2023-09-08T18:01:02.463Z,9.52
2023-09-08T18:03:34.938Z,8.88
2023-09-08T18:06:10.846Z,8.18
2023-09-08T18:08:43.441Z,10.43
2023-09-08T18:11:15.786Z,10.88
2023-09-08T18:13:49.652Z,9.52
2023-09-08T18:16:22.030Z,9.15
2023-09-08T18:18:54.275Z,8.23
2023-09-08T18:21:26.419Z,7.55
2023-09-08T18:23:58.569Z,7.25
2023-09-08T18:26:30.881Z,8.23
2023-09-08T18:29:03.171Z,8.43
2023-09-08T18:31:35.406Z,7.57
2023-09-08T18:34:10.675Z,8.27
2023-09-08T18:36:42.866Z,8.57
2023-09-08T18:39:14.979Z,7.63
2023-09-08T18:41:47.098Z,8.80
2023-09-08T18:44:19.292Z,8.88
2023-09-08T18:46:51.685Z,9.32
2023-09-08T18:49:23.888Z,8.75
2023-09-08T18:51:56.159Z,9.07
2023-09-08T18:54:30.916Z,9.15
2023-09-08T18:57:03.524Z,8.95
2023-09-08T18:59:35.742Z,10.32
2023-09-08T19:02:08.043Z,9.93
2023-09-08T19:04:40.218Z,9.40
2023-09-08T19:07:12.702Z,10.25
2023-09-08T19:09:44.813Z,10.93
2023-09-08T19:12:17.013Z,11.55
2023-09-08T19:14:49.296Z,10.98
2023-09-08T19:17:21.624Z,14.65
2023-09-08T19:19:53.809Z,17.05
2023-09-08T19:22:26.002Z,13.45
2023-09-08T19:24:58.267Z,12.05
2023-09-08T19:27:31.075Z,11.85
2023-09-08T19:30:07.070Z,11.38
2023-09-08T19:32:40.376Z,11.77
2023-09-08T19:35:12.726Z,13.57
2023-09-08T19:37:44.914Z,14.30
2023-09-08T19:40:17.273Z,12.65
2023-09-08T19:42:49.448Z,12.07
2023-09-08T19:45:21.547Z,14.00
2023-09-08T19:47:54.041Z,12.10
2023-09-08T19:50:26.351Z,11.15
2023-09-08T19:52:58.564Z,12.82
2023-09-08T19:55:32.040Z,11.73
2023-09-08T19:58:04.592Z,12.35
2023-09-08T20:00:36.688Z,12.35
2023-09-08T20:03:08.918Z,12.43
2023-09-08T20:05:45.063Z,13.25
2023-09-08T20:08:17.200Z,14.88
2023-09-08T20:10:54.394Z,15.40
2023-09-08T20:13:26.659Z,14.57
2023-09-08T20:16:04.519Z,15.43
2023-09-08T20:18:37.414Z,16.67
2023-09-08T20:21:10.942Z,14.73
2023-09-08T20:23:43.210Z,16.20
2023-09-08T20:26:15.557Z,14.60
2023-09-08T20:28:48.378Z,13.65
2023-09-08T20:31:21.008Z,13.38
2023-09-08T20:33:53.328Z,13.38
2023-09-08T20:36:26.050Z,12.70
2023-09-08T20:38:58.173Z,12.27
2023-09-08T20:41:30.373Z,10.48
2023-09-08T20:44:02.709Z,9.10
2023-09-08T20:46:34.947Z,8.15
2023-09-08T20:49:07.203Z,8.60
2023-09-08T20:51:39.399Z,8.35
2023-09-08T20:54:11.656Z,10.88
2023-09-08T20:56:43.789Z,8.30
2023-09-08T20:59:16.177Z,8.07
2023-09-08T21:01:48.321Z,7.13
2023-09-08T21:04:20.993Z,7.00
2023-09-08T21:06:53.311Z,8.07
2023-09-08T21:09:25.486Z,7.15
2023-09-08T21:11:57.683Z,6.70
2023-09-08T21:14:29.992Z,7.72
2023-09-08T21:17:02.410Z,7.18
2023-09-08T21:19:34.598Z,7.13
2023-09-08T21:22:06.920Z,6.78
2023-09-08T21:24:39.162Z,7.03
2023-09-08T21:27:11.447Z,6.80
2023-09-08T21:29:43.902Z,11.23
2023-09-08T21:32:16.018Z,7.65
2023-09-08T21:34:48.111Z,7.20
2023-09-08T21:37:23.378Z,7.10
2023-09-08T21:39:56.334Z,6.95
2023-09-08T21:42:28.536Z,7.18
2023-09-08T21:45:00.773Z,6.47
2023-09-08T21:47:34.221Z,7.20
2023-09-08T21:50:10.055Z,7.35
2023-09-08T21:52:42.495Z,28.38
2023-09-08T21:55:17.920Z,8.73
2023-09-08T21:57:50.107Z,7.72
2023-09-08T22:00:23.594Z,8.18
2023-09-08T22:02:56.004Z,8.65
2023-09-08T22:05:28.780Z,8.27
2023-09-08T22:08:00.974Z,7.65
2023-09-08T22:10:33.113Z,8.02
2023-09-08T22:13:05.430Z,8.40
2023-09-08T22:15:37.855Z,8.50
2023-09-08T22:18:10.235Z,8.07
2023-09-08T22:20:42.626Z,7.80
2023-09-08T22:23:14.868Z,8.32
2023-09-08T22:25:47.086Z,7.15
2023-09-08T22:28:19.218Z,9.57
2023-09-08T22:30:51.316Z,8.18
2023-09-08T22:33:23.659Z,6.50
2023-09-08T22:35:55.947Z,7.63
2023-09-08T22:38:28.344Z,8.23
2023-09-08T22:41:01.569Z,7.63
2023-09-08T22:43:33.801Z,7.85
2023-09-08T22:46:08.280Z,8.20
2023-09-08T22:48:40.570Z,7.80
2023-09-08T22:51:14.715Z,8.50
2023-09-08T22:53:46.856Z,10.38
2023-09-08T22:56:19.288Z,9.50
2023-09-08T22:58:51.519Z,8.35
2023-09-08T23:01:23.691Z,8.32
2023-09-08T23:03:55.929Z,9.02
2023-09-08T23:06:28.217Z,9.30
2023-09-08T23:09:00.340Z,9.90
2023-09-08T23:11:35.093Z,9.15
2023-09-08T23:14:07.263Z,9.63
2023-09-08T23:16:39.874Z,10.32
2023-09-08T23:19:12.307Z,9.63
2023-09-08T23:21:44.538Z,9.77
2023-09-08T23:24:16.709Z,9.95
2023-09-08T23:26:49.222Z,9.52
2023-09-08T23:29:21.345Z,8.75
2023-09-08T23:31:53.535Z,8.80
2023-09-08T23:34:25.736Z,9.18
2023-09-08T23:37:00.868Z,9.23
2023-09-08T23:39:33.424Z,9.55
2023-09-08T23:42:05.750Z,9.80
2023-09-08T23:44:37.878Z,9.48
2023-09-08T23:47:10.182Z,9.27
2023-09-08T23:49:42.313Z,9.25
2023-09-08T23:52:14.416Z,8.93
2023-09-08T23:54:46.565Z,8.88
2023-09-08T23:57:18.900Z,7.95
2023-09-08T23:59:51.168Z,9.13
